Time;durP1;ratioP1;P1;durP2;ratioP2;P2;SDS_P1;SDS_P2;PMS_P1;PMS_P2;Temp;Humidity;BMP_temperature;BMP_pressure;BME280_temperature;BME280_humidity;BME280_pressure;Samples;Min_cycle;Max_cycle;Signal;HPM_P1;HPM_P2
2021/07/07 00:00:55;;;;;;;6.88;5.38;;;22.60;99.90;;;;;;4992872;28;20018;-75
2021/07/07 00:03:22;;;;;;;5.97;5.00;;;22.50;99.90;;;;;;4992670;28;20089;-75
2021/07/07 00:05:48;;;;;;;7.85;4.85;;;22.50;99.90;;;;;;4992906;28;20023;-75
2021/07/07 00:08:13;;;;;;;5.70;4.72;;;22.40;99.90;;;;;;4992938;28;20034;-74
2021/07/07 00:10:39;;;;;;;6.95;5.13;;;22.40;99.90;;;;;;4993051;28;20356;-75
2021/07/07 00:13:05;;;;;;;7.03;5.32;;;22.40;99.90;;;;;;4993054;28;20027;-75
2021/07/07 00:15:33;;;;;;;8.75;5.15;;;22.30;99.90;;;;;;4992662;28;20077;-74
2021/07/07 00:18:06;;;;;;;8.45;5.38;;;22.30;99.90;;;;;;4992670;28;20156;-73
2021/07/07 00:21:07;;;;;;;8.10;4.63;;;22.30;99.90;;;;;;4992640;28;20061;-73
2021/07/07 00:23:25;;;;;;;6.72;5.22;;;22.20;99.90;;;;;;4988514;28;20054;-74
2021/07/07 00:25:51;;;;;;;7.22;5.05;;;22.20;99.90;;;;;;4992716;28;20101;-74
2021/07/07 00:28:18;;;;;;;9.27;5.47;;;22.10;99.90;;;;;;4992408;28;20386;-74
2021/07/07 00:30:46;;;;;;;7.68;5.35;;;22.10;99.90;;;;;;4992836;28;20033;-74
2021/07/07 00:33:11;;;;;;;11.25;5.70;;;22.10;99.90;;;;;;4992763;28;20034;-74
2021/07/07 00:35:37;;;;;;;8.38;5.53;;;22.10;99.90;;;;;;4992711;28;20105;-74
2021/07/07 00:38:03;;;;;;;6.13;5.30;;;22.00;99.90;;;;;;4992367;28;20116;-74
2021/07/07 00:40:29;;;;;;;8.38;5.35;;;22.00;99.90;;;;;;4992284;28;20134;-74
2021/07/07 00:42:54;;;;;;;10.18;5.15;;;22.00;99.90;;;;;;4992628;28;20023;-74
2021/07/07 00:45:20;;;;;;;7.05;5.20;;;22.00;99.90;;;;;;4992406;28;20034;-74
2021/07/07 00:47:47;;;;;;;10.57;5.40;;;22.00;99.90;;;;;;4992774;28;20026;-74
2021/07/07 00:50:14;;;;;;;8.52;5.68;;;22.00;99.90;;;;;;4996623;28;20518;-75
2021/07/07 00:52:40;;;;;;;6.03;5.40;;;22.00;99.90;;;;;;4995933;28;20050;-74
2021/07/07 00:55:12;;;;;;;10.63;5.65;;;22.00;99.90;;;;;;4996631;28;20034;-74
2021/07/07 00:57:41;;;;;;;9.15;6.18;;;21.90;99.90;;;;;;4996043;28;20814;-74
2021/07/07 01:00:11;;;;;;;7.80;5.32;;;21.80;99.90;;;;;;4996207;28;20482;-74
2021/07/07 01:02:40;;;;;;;6.25;5.53;;;21.80;99.90;;;;;;4996318;28;20113;-73
2021/07/07 01:05:08;;;;;;;9.73;5.95;;;21.70;99.90;;;;;;4996209;28;20552;-73
2021/07/07 01:07:34;;;;;;;7.38;5.72;;;21.70;99.90;;;;;;4995737;28;20697;-73
2021/07/07 01:10:00;;;;;;;9.10;5.55;;;21.70;99.90;;;;;;4996238;28;20355;-73
2021/07/07 01:12:26;;;;;;;7.72;5.88;;;21.60;99.90;;;;;;4995784;28;20029;-74
2021/07/07 01:14:54;;;;;;;7.88;5.97;;;21.60;99.90;;;;;;4995938;28;20109;-73
2021/07/07 01:53:32;;;;;;;7.53;6.23;;;21.50;99.90;;;;;;5362511;23;20054;-74
2021/07/07 01:55:58;;;;;;;6.30;5.70;;;21.50;99.90;;;;;;4995360;28;20489;-74
2021/07/07 01:58:24;;;;;;;10.75;6.88;;;21.50;99.90;;;;;;4995104;28;20163;-75
2021/07/07 02:00:49;;;;;;;8.57;6.18;;;21.50;99.90;;;;;;4994714;28;20072;-74
2021/07/07 02:03:15;;;;;;;10.00;6.40;;;21.50;99.90;;;;;;4994935;28;20054;-73
2021/07/07 02:05:41;;;;;;;9.10;6.22;;;21.50;99.90;;;;;;4994895;28;20065;-73
2021/07/07 02:08:08;;;;;;;9.73;6.70;;;21.50;99.90;;;;;;4994935;28;20030;-74
2021/07/07 02:10:35;;;;;;;15.27;6.50;;;21.50;99.90;;;;;;4994816;28;20536;-75
2021/07/07 02:13:01;;;;;;;10.73;7.45;;;21.50;99.90;;;;;;4995162;28;20097;-75
2021/07/07 02:15:30;;;;;;;7.50;6.30;;;21.50;99.90;;;;;;4995024;28;20458;-74
2021/07/07 02:17:57;;;;;;;8.90;6.35;;;21.50;99.90;;;;;;4994920;28;20540;-74
2021/07/07 02:20:24;;;;;;;10.23;6.45;;;21.50;99.90;;;;;;4994996;28;20033;-74
2021/07/07 02:22:50;;;;;;;7.50;6.20;;;21.50;99.90;;;;;;4994686;28;20504;-74
2021/07/07 02:25:21;;;;;;;8.13;7.32;;;21.40;99.90;;;;;;4994737;28;20034;-74
2021/07/07 02:27:48;;;;;;;9.68;6.78;;;21.40;99.90;;;;;;4994415;28;20037;-74
2021/07/07 02:30:17;;;;;;;9.90;6.78;;;21.50;99.90;;;;;;4994705;28;20041;-75
2021/07/07 02:32:43;;;;;;;7.57;6.43;;;21.50;99.90;;;;;;4994427;28;20022;-75
2021/07/07 02:35:13;;;;;;;12.77;6.97;;;21.50;99.90;;;;;;4994850;28;20031;-74
2021/07/07 02:37:40;;;;;;;8.30;7.15;;;21.50;99.90;;;;;;4994497;28;20027;-75
2021/07/07 02:40:07;;;;;;;7.85;6.38;;;21.60;99.90;;;;;;4994396;28;20026;-75
2021/07/07 02:42:33;;;;;;;9.90;6.70;;;21.60;99.90;;;;;;4994513;28;20035;-75
2021/07/07 02:44:59;;;;;;;7.55;6.72;;;21.60;99.90;;;;;;4994173;28;20470;-75
2021/07/07 02:47:25;;;;;;;11.45;7.13;;;21.60;99.90;;;;;;4994464;28;20073;-74
2021/07/07 02:49:51;;;;;;;11.70;6.70;;;21.60;99.90;;;;;;4994072;28;20501;-74
2021/07/07 02:52:16;;;;;;;8.82;7.25;;;21.70;99.90;;;;;;4993807;28;20018;-74
2021/07/07 02:54:42;;;;;;;10.57;6.97;;;21.70;99.90;;;;;;4993937;28;20041;-74
2021/07/07 02:57:08;;;;;;;7.90;7.03;;;21.70;99.90;;;;;;4992816;28;20027;-74
2021/07/07 02:59:34;;;;;;;10.27;6.93;;;21.80;99.90;;;;;;4976442;28;20085;-75
2021/07/07 03:01:59;;;;;;;9.82;7.35;;;21.80;99.90;;;;;;4994287;28;20034;-73
2021/07/07 03:04:25;;;;;;;8.98;7.00;;;21.90;99.90;;;;;;4993958;28;20109;-74
2021/07/07 03:06:51;;;;;;;8.27;6.30;;;21.90;99.90;;;;;;4994125;28;20027;-73
2021/07/07 03:09:17;;;;;;;8.25;6.35;;;22.00;99.90;;;;;;4993712;28;20561;-73
2021/07/07 03:11:42;;;;;;;6.55;5.88;;;22.10;99.90;;;;;;4992907;28;20033;-75
2021/07/07 03:14:08;;;;;;;7.07;5.85;;;22.20;99.90;;;;;;4976371;28;20022;-75
2021/07/07 03:16:34;;;;;;;7.00;6.28;;;22.20;99.90;;;;;;4993573;28;20026;-75
2021/07/07 03:18:59;;;;;;;7.93;5.82;;;22.30;99.90;;;;;;4993703;28;20030;-75
2021/07/07 03:21:25;;;;;;;6.95;5.93;;;22.40;99.90;;;;;;4993715;28;20019;-75
2021/07/07 03:23:51;;;;;;;8.38;6.43;;;22.50;99.90;;;;;;4993460;28;20030;-75
2021/07/07 03:26:17;;;;;;;8.48;5.30;;;22.90;99.90;;;;;;4993650;28;20117;-75
2021/07/07 03:28:42;;;;;;;6.43;5.65;;;23.10;99.90;;;;;;4993541;28;20065;-75
2021/07/07 03:31:08;;;;;;;6.88;5.43;;;23.50;99.90;;;;;;4993614;28;20421;-75
2021/07/07 03:33:34;;;;;;;6.50;5.68;;;23.70;99.90;;;;;;4993595;28;20586;-75
2021/07/07 03:36:00;;;;;;;6.50;5.90;;;24.00;99.90;;;;;;4993770;28;20363;-75
2021/07/07 03:38:27;;;;;;;8.13;5.38;;;24.20;99.90;;;;;;4993378;28;20369;-75
2021/07/07 03:40:53;;;;;;;6.97;4.75;;;24.40;99.90;;;;;;4976018;28;20062;-75
2021/07/07 03:43:19;;;;;;;9.70;5.13;;;24.40;99.90;;;;;;4993209;28;20026;-74
2021/07/07 03:45:45;;;;;;;8.80;4.40;;;24.50;99.90;;;;;;4993145;28;20033;-74
2021/07/07 03:48:11;;;;;;;6.22;4.53;;;24.50;99.90;;;;;;4993083;28;20038;-74
2021/07/07 03:50:38;;;;;;;5.30;4.45;;;24.60;99.90;;;;;;4993365;28;20053;-75
2021/07/07 03:53:06;;;;;;;5.65;4.70;;;24.50;99.90;;;;;;4992711;28;20076;-74
2021/07/07 03:55:33;;;;;;;5.88;4.50;;;24.40;99.90;;;;;;4993336;28;20030;-74
2021/07/07 03:58:00;;;;;;;5.07;4.35;;;24.20;99.90;;;;;;4992955;28;20385;-74
2021/07/07 04:00:27;;;;;;;5.20;4.45;;;24.10;99.90;;;;;;4993206;28;20453;-75
2021/07/07 04:02:55;;;;;;;4.93;4.43;;;24.10;99.90;;;;;;4992764;28;20501;-75
2021/07/07 04:05:21;;;;;;;5.72;4.05;;;23.90;99.90;;;;;;4992704;28;20037;-75
2021/07/07 04:07:47;;;;;;;6.30;4.53;;;23.80;99.90;;;;;;4992908;28;20109;-75
2021/07/07 04:10:14;;;;;;;4.82;4.28;;;23.80;99.90;;;;;;4992997;28;20061;-75
2021/07/07 04:12:44;;;;;;;4.22;3.83;;;24.00;99.90;;;;;;4992508;28;20026;-75
2021/07/07 04:15:12;;;;;;;5.05;4.03;;;24.10;99.90;;;;;;4992726;28;20497;-74
2021/07/07 04:17:38;;;;;;;6.88;4.45;;;24.10;99.90;;;;;;4992546;28;20026;-74
2021/07/07 04:20:06;;;;;;;5.43;4.22;;;24.00;99.90;;;;;;4992620;28;20073;-74
2021/07/07 04:22:32;;;;;;;6.13;4.55;;;24.00;99.90;;;;;;4992402;28;20076;-72
2021/07/07 04:24:58;;;;;;;5.90;4.60;;;23.90;99.90;;;;;;4992711;28;20121;-72
2021/07/07 04:27:24;;;;;;;6.85;4.57;;;23.80;99.90;;;;;;4992505;28;20031;-72
2021/07/07 04:29:50;;;;;;;5.55;4.45;;;23.70;99.90;;;;;;4992424;28;20037;-74
2021/07/07 04:32:18;;;;;;;5.88;4.80;;;23.60;99.90;;;;;;4992602;28;20033;-72
2021/07/07 04:34:45;;;;;;;7.22;4.85;;;23.70;99.90;;;;;;4992626;28;20065;-72
2021/07/07 04:37:11;;;;;;;7.05;5.05;;;23.90;99.90;;;;;;4992530;28;20482;-70
2021/07/07 04:39:37;;;;;;;6.75;4.32;;;24.00;99.90;;;;;;4992416;28;20470;-72
2021/07/07 04:42:03;;;;;;;6.95;5.32;;;24.10;99.90;;;;;;4992802;28;20033;-73
2021/07/07 04:44:29;;;;;;;5.00;4.50;;;24.50;99.90;;;;;;4992476;28;20026;-72
2021/07/07 04:46:55;;;;;;;5.18;4.63;;;24.80;99.90;;;;;;4992687;28;20449;-76
2021/07/07 04:49:20;;;;;;;6.40;4.32;;;25.00;99.90;;;;;;4992353;28;20371;-76
2021/07/07 04:51:46;;;;;;;7.07;4.70;;;25.30;99.90;;;;;;4992618;28;20026;-76
2021/07/07 04:54:12;;;;;;;5.78;4.80;;;25.40;99.90;;;;;;4992081;28;20542;-76
2021/07/07 04:56:38;;;;;;;7.35;4.57;;;25.70;99.90;;;;;;4992252;28;20565;-79
2021/07/07 04:59:04;;;;;;;6.72;4.20;;;25.80;99.90;;;;;;4992273;28;20541;-70
2021/07/07 05:01:30;;;;;;;7.95;4.50;;;25.70;99.90;;;;;;4992372;28;20034;-71
2021/07/07 05:03:55;;;;;;;13.27;5.00;;;25.70;99.90;;;;;;4991992;28;20027;-72
2021/07/07 05:06:21;;;;;;;7.97;4.13;;;25.70;99.90;;;;;;4992204;28;20080;-69
2021/07/07 05:08:47;;;;;;;4.78;3.95;;;26.00;99.90;;;;;;4991926;28;20485;-71
2021/07/07 05:11:13;;;;;;;8.15;4.35;;;26.10;99.90;;;;;;4992186;28;20019;-72
2021/07/07 05:13:38;;;;;;;6.35;4.28;;;26.10;99.90;;;;;;4991990;28;20090;-71
2021/07/07 05:16:05;;;;;;;7.70;4.72;;;26.10;99.80;;;;;;4992193;28;20034;-72
2021/07/07 05:18:31;;;;;;;5.82;4.00;;;26.20;99.50;;;;;;4992103;28;20030;-71
2021/07/07 05:20:57;;;;;;;4.00;3.50;;;26.20;98.90;;;;;;4991917;28;20498;-72
2021/07/07 05:23:23;;;;;;;5.97;4.05;;;26.20;98.70;;;;;;4991963;28;20033;-72
2021/07/07 05:25:49;;;;;;;5.82;4.30;;;26.10;98.80;;;;;;4992205;28;20030;-71
2021/07/07 05:28:14;;;;;;;7.82;4.03;;;25.90;98.80;;;;;;4992230;28;20042;-77
2021/07/07 05:30:40;;;;;;;6.15;3.95;;;25.80;99.30;;;;;;4988572;28;20045;-75
2021/07/07 05:33:08;;;;;;;8.55;3.90;;;25.70;99.40;;;;;;4977379;28;20042;-76
2021/07/07 05:35:35;;;;;;;7.10;3.30;;;25.90;99.60;;;;;;4975312;28;20105;-76
2021/07/07 05:38:01;;;;;;;8.93;3.25;;;26.10;98.70;;;;;;4976294;28;20386;-75
2021/07/07 05:40:27;;;;;;;6.03;3.20;;;26.40;97.30;;;;;;4976307;28;20113;-76
2021/07/07 05:42:52;;;;;;;6.18;3.63;;;26.70;96.30;;;;;;4975977;28;20035;-76
2021/07/07 05:45:24;;;;;;;9.23;3.65;;;26.90;95.40;;;;;;4976253;28;20025;-76
2021/07/07 05:47:51;;;;;;;5.68;3.58;;;26.80;94.70;;;;;;4975980;28;20035;-75
2021/07/07 05:50:18;;;;;;;6.00;3.45;;;26.70;94.70;;;;;;4975880;28;20042;-75
2021/07/07 05:52:44;;;;;;;6.07;3.40;;;26.50;94.60;;;;;;4975574;28;20069;-75
2021/07/07 05:55:11;;;;;;;6.15;3.50;;;26.70;94.90;;;;;;4975658;28;20479;-76
2021/07/07 05:57:37;;;;;;;5.55;3.75;;;27.10;94.30;;;;;;4976043;28;20113;-76
2021/07/07 06:00:10;;;;;;;5.82;3.80;;;27.30;93.30;;;;;;4975780;28;20035;-71
2021/07/07 06:02:36;;;;;;;4.78;3.13;;;27.50;92.40;;;;;;4975908;28;20023;-71
2021/07/07 06:05:03;;;;;;;7.30;3.60;;;27.90;91.90;;;;;;4975545;28;20038;-75
2021/07/07 06:07:29;;;;;;;7.25;3.80;;;28.00;90.80;;;;;;4975419;28;20114;-76
2021/07/07 06:09:55;;;;;;;5.28;3.30;;;28.20;90.90;;;;;;4975741;28;20126;-76
2021/07/07 06:12:20;;;;;;;5.80;3.38;;;28.30;89.60;;;;;;4975536;28;20030;-72
2021/07/07 06:14:46;;;;;;;4.60;3.22;;;28.20;88.10;;;;;;4975367;28;20027;-69
2021/07/07 06:17:12;;;;;;;5.55;3.15;;;28.10;87.50;;;;;;4975670;28;20089;-69
2021/07/07 06:19:37;;;;;;;6.28;3.28;;;27.90;87.70;;;;;;4975311;28;20030;-69
2021/07/07 06:22:03;;;;;;;6.88;3.55;;;27.70;87.80;;;;;;4975446;28;20038;-70
2021/07/07 06:24:29;;;;;;;4.38;3.08;;;27.40;88.40;;;;;;4975467;28;20038;-69
2021/07/07 06:26:55;;;;;;;6.93;3.17;;;27.20;88.90;;;;;;4975074;28;20541;-69
2021/07/07 06:29:21;;;;;;;6.95;3.20;;;27.20;90.00;;;;;;4974991;28;20062;-69
2021/07/07 06:31:46;;;;;;;4.63;3.17;;;27.30;90.30;;;;;;4975235;28;20093;-69
2021/07/07 06:34:12;;;;;;;3.75;3.15;;;27.40;90.00;;;;;;4975376;28;20154;-69
2021/07/07 06:36:39;;;;;;;3.55;3.13;;;27.40;89.80;;;;;;4975066;28;20081;-69
2021/07/07 06:39:05;;;;;;;3.90;3.10;;;27.30;89.90;;;;;;4957353;28;20023;-70
2021/07/07 06:41:34;;;;;;;3.28;2.92;;;27.30;90.30;;;;;;4974359;28;20077;-69
2021/07/07 06:44:00;;;;;;;3.85;3.15;;;27.20;90.70;;;;;;4974675;28;20033;-69
2021/07/07 06:46:26;;;;;;;4.97;3.10;;;27.10;90.70;;;;;;4973700;28;20066;-69
2021/07/07 06:48:52;;;;;;;14.63;4.13;;;27.00;90.90;;;;;;4974398;28;20092;-69
2021/07/07 06:51:18;;;;;;;8.27;3.72;;;26.90;90.80;;;;;;4974840;28;20019;-69
2021/07/07 06:53:43;;;;;;;6.85;3.33;;;26.80;91.00;;;;;;4974325;28;20443;-71
2021/07/07 06:56:09;;;;;;;6.20;3.13;;;26.80;91.40;;;;;;4974692;28;20035;-70
2021/07/07 06:58:35;;;;;;;5.55;3.42;;;26.80;91.10;;;;;;4974598;28;20046;-70
2021/07/07 07:01:01;;;;;;;4.82;3.30;;;26.70;91.40;;;;;;4974736;28;20035;-69
2021/07/07 07:03:26;;;;;;;5.53;3.10;;;26.70;92.10;;;;;;4974524;28;20058;-70
2021/07/07 07:05:52;;;;;;;3.83;2.90;;;26.70;92.50;;;;;;4974577;28;20027;-69
2021/07/07 07:08:18;;;;;;;5.63;2.47;;;26.70;92.50;;;;;;4974600;28;20117;-71
2021/07/07 07:10:45;;;;;;;5.07;3.20;;;26.80;91.90;;;;;;4976656;28;20030;-71
2021/07/07 07:13:12;;;;;;;3.38;2.92;;;26.70;91.70;;;;;;4990688;28;20037;-71
2021/07/07 07:15:37;;;;;;;3.85;2.60;;;26.70;91.80;;;;;;4993907;28;20099;-71
2021/07/07 07:18:04;;;;;;;5.95;3.00;;;26.70;91.80;;;;;;4993453;28;20498;-71
2021/07/07 07:20:30;;;;;;;11.70;3.00;;;26.70;91.50;;;;;;4993513;28;20109;-71
2021/07/07 07:23:00;;;;;;;4.57;2.65;;;26.70;91.60;;;;;;4993446;28;20166;-71
2021/07/07 07:25:26;;;;;;;4.05;3.00;;;26.70;91.40;;;;;;4990177;28;20106;-74
2021/07/07 07:27:53;;;;;;;6.18;2.95;;;26.80;91.20;;;;;;4956604;28;20026;-71
2021/07/07 07:30:20;;;;;;;4.05;3.05;;;26.90;90.90;;;;;;4979608;28;20054;-72
2021/07/07 07:32:48;;;;;;;3.03;2.42;;;27.00;90.90;;;;;;4974216;28;20057;-71
2021/07/07 07:35:16;;;;;;;4.65;3.17;;;27.00;91.00;;;;;;4974081;28;20363;-71
2021/07/07 07:37:59;;;;;;;4.13;2.70;;;26.90;91.00;;;;;;4974075;28;20023;-71
2021/07/07 07:40:32;;;;;;;3.88;2.75;;;26.90;90.50;;;;;;4974015;28;20062;-71
2021/07/07 07:42:58;;;;;;;6.70;3.05;;;26.90;90.70;;;;;;4973873;28;20090;-71
2021/07/07 07:45:24;;;;;;;4.85;2.67;;;26.90;90.80;;;;;;4973868;28;20474;-71
2021/07/07 07:47:51;;;;;;;3.28;2.60;;;27.00;90.90;;;;;;4973926;28;20057;-71
2021/07/07 07:50:17;;;;;;;4.57;2.72;;;27.00;90.60;;;;;;4976675;28;20032;-71
2021/07/07 07:52:44;;;;;;;4.90;2.72;;;27.10;91.00;;;;;;4992791;28;20046;-72
2021/07/07 07:55:11;;;;;;;9.48;2.55;;;27.10;91.60;;;;;;4993126;28;20030;-71
2021/07/07 07:57:40;;;;;;;4.07;2.55;;;27.40;91.60;;;;;;4986535;28;20054;-72
2021/07/07 08:00:11;;;;;;;3.38;2.30;;;27.50;90.30;;;;;;4973703;28;20573;-71
2021/07/07 08:02:36;;;;;;;4.63;2.60;;;27.60;89.40;;;;;;4973218;28;20066;-71
2021/07/07 08:05:03;;;;;;;4.20;2.88;;;27.70;87.80;;;;;;4973495;28;20062;-71
2021/07/07 08:07:29;;;;;;;3.00;2.70;;;27.70;88.80;;;;;;4973730;28;20390;-72
2021/07/07 08:09:55;;;;;;;6.95;2.72;;;27.70;89.50;;;;;;4973189;28;20589;-72
2021/07/07 08:12:22;;;;;;;2.83;2.45;;;27.80;88.70;;;;;;4973591;28;20057;-72
2021/07/07 08:14:52;;;;;;;5.45;3.65;;;27.90;89.30;;;;;;4973226;28;20402;-72
2021/07/07 08:17:21;;;;;;;5.18;2.58;;;27.90;89.10;;;;;;4973163;28;20029;-71
2021/07/07 08:19:48;;;;;;;6.88;2.85;;;27.90;88.80;;;;;;4973381;28;20027;-71
2021/07/07 08:22:14;;;;;;;4.88;2.30;;;27.90;88.10;;;;;;4973204;28;20034;-71
2021/07/07 08:24:40;;;;;;;8.93;2.97;;;27.90;87.00;;;;;;4973413;28;20053;-71
2021/07/07 08:27:08;;;;;;;6.53;3.00;;;27.90;86.40;;;;;;4977751;28;20382;-71
2021/07/07 08:29:35;;;;;;;4.78;2.83;;;27.90;86.10;;;;;;4978185;28;20089;-71
2021/07/07 08:32:01;;;;;;;5.32;2.83;;;27.90;85.10;;;;;;4973141;28;20352;-71
2021/07/07 08:34:27;;;;;;;4.38;2.60;;;27.80;85.80;;;;;;4973355;28;20478;-72
2021/07/07 08:36:53;;;;;;;4.07;2.58;;;27.80;86.40;;;;;;4972991;28;20105;-71
2021/07/07 08:39:18;;;;;;;4.50;2.90;;;27.80;87.10;;;;;;4973252;28;20157;-72
2021/07/07 08:41:44;;;;;;;3.25;2.75;;;27.80;87.30;;;;;;4973297;28;20487;-72
2021/07/07 08:44:10;;;;;;;6.15;2.88;;;27.80;87.10;;;;;;4972823;28;20035;-72
2021/07/07 08:46:36;;;;;;;4.97;2.90;;;27.90;87.70;;;;;;4973081;28;20023;-72
2021/07/07 08:49:03;;;;;;;5.70;2.78;;;28.10;86.70;;;;;;4973936;28;20058;-72
2021/07/07 08:51:30;;;;;;;6.57;2.80;;;28.20;84.80;;;;;;4974243;28;20386;-71
2021/07/07 08:53:56;;;;;;;5.55;2.95;;;28.30;85.20;;;;;;4955406;28;20435;-72
2021/07/07 08:56:22;;;;;;;7.63;2.90;;;28.20;82.80;;;;;;4973104;28;20038;-71
2021/07/07 08:58:50;;;;;;;3.75;2.88;;;28.20;82.80;;;;;;4973028;28;20033;-71
2021/07/07 09:01:16;;;;;;;3.55;3.10;;;28.10;84.00;;;;;;4972962;28;20118;-71
2021/07/07 09:03:45;;;;;;;7.28;3.08;;;28.00;83.30;;;;;;4972860;28;20062;-71
2021/07/07 09:06:12;;;;;;;4.10;2.97;;;27.90;83.10;;;;;;4972653;28;20126;-71
2021/07/07 09:08:44;;;;;;;5.50;2.70;;;28.00;84.90;;;;;;4972777;28;20031;-70
2021/07/07 09:11:21;;;;;;;4.93;2.80;;;28.10;83.50;;;;;;4976438;28;20050;-71
2021/07/07 09:14:07;;;;;;;3.33;3.03;;;28.20;82.90;;;;;;4976604;28;20551;-70
2021/07/07 09:16:50;;;;;;;4.45;3.30;;;28.10;84.50;;;;;;4976759;28;20030;-70
2021/07/07 09:19:17;;;;;;;10.15;3.33;;;28.20;83.30;;;;;;4976376;28;20434;-70
2021/07/07 09:21:50;;;;;;;5.97;3.35;;;28.20;83.40;;;;;;4976346;28;20023;-71
2021/07/07 09:24:21;;;;;;;4.50;3.20;;;28.20;83.50;;;;;;4976561;28;20038;-71
2021/07/07 09:27:17;;;;;;;7.13;3.40;;;28.10;83.70;;;;;;4976525;28;20057;-69
2021/07/07 09:29:46;;;;;;;5.55;3.00;;;28.10;84.80;;;;;;4993436;28;20054;-69
2021/07/07 09:32:19;;;;;;;5.82;3.30;;;28.00;85.00;;;;;;4989689;28;20109;-70
2021/07/07 09:34:48;;;;;;;18.80;4.35;;;28.10;84.40;;;;;;4995615;28;20457;-70
2021/07/07 09:37:47;;;;;;;5.50;3.10;;;28.10;85.00;;;;;;4995454;28;20045;-70
2021/07/07 09:40:13;;;;;;;5.25;3.50;;;28.10;84.30;;;;;;4995421;28;20026;-72
2021/07/07 09:42:41;;;;;;;4.85;3.20;;;28.10;85.60;;;;;;4995716;28;20034;-72
2021/07/07 09:45:10;;;;;;;6.43;3.10;;;28.00;82.60;;;;;;4995386;28;20023;-72
2021/07/07 09:47:36;;;;;;;7.60;3.05;;;28.00;85.40;;;;;;4995615;28;20040;-72
2021/07/07 09:50:03;;;;;;;4.13;2.83;;;28.10;83.80;;;;;;4995115;28;20490;-72
2021/07/07 09:52:30;;;;;;;9.25;3.30;;;28.10;84.00;;;;;;4994941;28;20042;-73
2021/07/07 09:54:57;;;;;;;22.65;4.38;;;28.10;81.60;;;;;;4995059;28;20038;-72
2021/07/07 09:57:23;;;;;;;5.20;2.88;;;27.90;80.20;;;;;;4995448;28;20113;-73
2021/07/07 09:59:49;;;;;;;3.88;2.80;;;27.90;80.60;;;;;;4992245;28;20054;-72
2021/07/07 10:02:15;;;;;;;5.68;2.88;;;27.90;81.40;;;;;;4995170;28;20486;-72
2021/07/07 10:04:43;;;;;;;7.45;3.13;;;28.00;81.30;;;;;;4995070;28;20378;-72
2021/07/07 10:07:14;;;;;;;7.97;2.95;;;28.00;80.80;;;;;;4994972;28;20052;-73
2021/07/07 10:09:44;;;;;;;6.35;2.97;;;28.00;80.10;;;;;;4995246;28;20038;-73
2021/07/07 10:12:11;;;;;;;6.13;2.85;;;27.90;80.40;;;;;;4995049;28;20410;-73
2021/07/07 10:14:37;;;;;;;6.68;3.22;;;27.80;79.70;;;;;;4994817;28;20036;-73
2021/07/07 10:17:03;;;;;;;11.90;3.13;;;27.60;80.20;;;;;;4994921;28;20025;-73
2021/07/07 10:19:31;;;;;;;7.75;3.17;;;27.50;81.00;;;;;;4994786;28;20042;-73
2021/07/07 10:21:57;;;;;;;9.40;3.42;;;27.40;81.10;;;;;;4994499;28;20573;-73
2021/07/07 10:24:27;;;;;;;4.38;3.00;;;27.40;81.30;;;;;;4994940;28;20421;-73
2021/07/07 10:26:56;;;;;;;9.45;3.30;;;27.30;82.50;;;;;;4994716;28;20471;-73
2021/07/07 10:29:23;;;;;;;;;;;27.30;83.40;;;;;;4995276;28;20038;-73
2021/07/07 10:31:52;;;;;;;4.40;3.20;;;27.50;84.70;;;;;;4994642;28;19906;-73
2021/07/07 10:34:21;;;;;;;5.22;2.97;;;27.70;83.40;;;;;;4994295;28;20030;-73
2021/07/07 10:36:48;;;;;;;3.85;3.47;;;27.80;82.50;;;;;;4994597;28;20031;-73
2021/07/07 10:39:15;;;;;;;4.47;2.97;;;27.90;81.00;;;;;;4994377;28;20054;-73
2021/07/07 10:44:10;;;;;;;8.60;3.17;;;27.90;80.90;;;;;;4994358;28;20026;-72
2021/07/07 10:46:51;;;;;;;5.60;3.10;;;27.90;80.20;;;;;;4985878;28;20034;-72
2021/07/07 10:49:21;;;;;;;4.25;3.03;;;27.90;79.80;;;;;;4983511;28;20030;-70
2021/07/07 10:51:58;;;;;;;7.85;2.90;;;27.90;79.70;;;;;;4983163;28;20611;-74
2021/07/07 10:54:38;;;;;;;6.30;3.20;;;27.80;78.30;;;;;;4982458;28;20074;-71
2021/07/07 10:57:09;;;;;;;5.63;2.90;;;27.80;78.30;;;;;;4991780;28;20050;-70
2021/07/07 10:59:38;;;;;;;7.55;3.42;;;27.70;78.30;;;;;;4994211;28;20387;-71
2021/07/07 11:02:08;;;;;;;13.20;3.20;;;27.80;78.70;;;;;;4993878;28;20090;-71
2021/07/07 11:04:41;;;;;;;4.85;3.10;;;27.80;79.40;;;;;;4976173;28;20057;-71
2021/07/07 11:07:40;;;;;;;6.88;3.42;;;27.80;79.50;;;;;;4993816;28;20049;-70
2021/07/07 11:10:17;;;;;;;11.60;4.22;;;27.80;78.80;;;;;;4987428;28;20034;-70
2021/07/07 11:12:43;;;;;;;10.32;3.92;;;27.80;80.20;;;;;;4974377;28;20030;-70
2021/07/07 11:15:10;;;;;;;29.88;5.38;;;27.90;80.10;;;;;;4974046;28;20023;-70
2021/07/07 11:17:36;;;;;;;16.08;4.15;;;27.90;79.30;;;;;;4974287;28;20083;-70
2021/07/07 11:20:08;;;;;;;10.02;3.60;;;28.00;77.10;;;;;;4974098;28;20026;-70
2021/07/07 11:22:36;;;;;;;31.90;4.70;;;27.90;78.30;;;;;;4974158;28;20151;-70
2021/07/07 11:25:06;;;;;;;138.07;18.55;;;28.00;78.70;;;;;;4974181;28;20097;-70
2021/07/07 11:27:33;;;;;;;25.40;5.55;;;28.10;77.30;;;;;;4974174;28;20065;-70
2021/07/07 11:30:01;;;;;;;43.63;4.85;;;27.90;77.20;;;;;;4988116;28;20042;-70
2021/07/07 11:32:30;;;;;;;8.07;3.88;;;27.80;80.10;;;;;;4992769;28;20022;-70
2021/07/07 11:35:01;;;;;;;7.72;4.18;;;27.70;80.40;;;;;;4993224;28;20109;-70
2021/07/07 11:37:32;;;;;;;3.97;3.65;;;27.70;80.70;;;;;;4974040;28;20089;-70
2021/07/07 11:40:10;;;;;;;11.75;3.80;;;27.50;80.70;;;;;;4973605;28;20058;-70
2021/07/07 11:43:10;;;;;;;7.63;3.22;;;27.40;80.20;;;;;;4973781;28;20066;-70
2021/07/07 11:45:48;;;;;;;9.60;3.90;;;27.40;80.80;;;;;;4990406;28;20026;-70
2021/07/07 11:48:37;;;;;;;8.32;4.10;;;27.40;81.20;;;;;;4992994;28;20018;-70
2021/07/07 11:51:18;;;;;;;9.18;3.88;;;27.40;81.30;;;;;;4992894;28;20026;-70
2021/07/07 11:53:45;;;;;;;19.60;5.10;;;27.30;81.50;;;;;;4992742;28;20046;-71
2021/07/07 11:56:19;;;;;;;50.00;5.60;;;27.30;82.80;;;;;;4992738;28;20034;-70
2021/07/07 11:58:52;;;;;;;13.05;4.38;;;27.20;83.40;;;;;;4993061;28;20465;-70
2021/07/07 12:01:22;;;;;;;5.72;3.80;;;26.90;84.70;;;;;;4987362;28;20397;-70
2021/07/07 12:04:00;;;;;;;7.55;3.80;;;26.70;86.10;;;;;;4990900;28;20038;-70
2021/07/07 12:06:43;;;;;;;4.97;3.85;;;26.70;85.70;;;;;;4992854;28;20110;-72
2021/07/07 12:09:19;;;;;;;6.65;3.70;;;26.70;86.50;;;;;;4992736;28;20544;-72
2021/07/07 12:11:55;;;;;;;11.77;4.53;;;26.80;86.70;;;;;;4987539;28;20031;-71
2021/07/07 12:14:23;;;;;;;9.40;3.90;;;26.80;86.20;;;;;;4973124;28;20026;-71
2021/07/07 12:16:49;;;;;;;5.13;3.70;;;26.70;86.10;;;;;;4973211;28;20022;-71
2021/07/07 12:19:16;;;;;;;25.40;5.68;;;26.70;85.50;;;;;;4973129;28;20030;-72
2021/07/07 12:22:02;;;;;;;15.57;4.03;;;26.70;85.90;;;;;;4973071;28;20019;-72
2021/07/07 12:24:39;;;;;;;5.65;3.78;;;26.70;87.40;;;;;;4973275;28;20081;-72
2021/07/07 12:27:14;;;;;;;6.95;4.00;;;26.70;86.30;;;;;;4955719;28;20501;-72
2021/07/07 12:29:47;;;;;;;35.38;4.72;;;26.50;87.20;;;;;;4972983;28;20082;-72
2021/07/07 12:32:26;;;;;;;11.40;3.88;;;26.60;86.80;;;;;;4972939;28;20468;-71
2021/07/07 12:34:56;;;;;;;8.57;3.55;;;26.40;86.30;;;;;;4973139;28;20030;-72
2021/07/07 12:37:23;;;;;;;25.35;4.38;;;26.30;86.50;;;;;;4972982;28;20035;-73
2021/07/07 12:40:11;;;;;;;9.45;3.80;;;26.30;86.70;;;;;;4972956;28;20344;-76
2021/07/07 12:42:39;;;;;;;12.57;4.43;;;26.30;88.00;;;;;;4973252;28;20155;-74
2021/07/07 12:45:10;;;;;;;22.42;3.72;;;26.20;87.70;;;;;;4976782;28;20113;-73
2021/07/07 12:47:36;;;;;;;217.40;14.65;;;26.30;87.20;;;;;;4977012;28;20042;-74
2021/07/07 12:50:16;;;;;;;9.10;3.22;;;26.20;83.80;;;;;;4976765;28;20038;-73
2021/07/07 12:52:45;;;;;;;11.68;3.10;;;26.30;82.50;;;;;;4976934;28;20067;-74
2021/07/07 12:55:22;;;;;;;16.48;3.13;;;26.40;83.10;;;;;;4976531;28;20039;-72
2021/07/07 12:58:03;;;;;;;15.18;3.17;;;26.40;82.20;;;;;;4977187;28;20115;-74
2021/07/07 13:00:32;;;;;;;9.45;3.20;;;26.50;80.20;;;;;;4977031;28;20424;-74
2021/07/07 13:03:07;;;;;;;6.95;2.90;;;26.30;78.80;;;;;;4977020;28;20034;-72
2021/07/07 13:05:55;;;;;;;6.75;2.80;;;26.10;78.70;;;;;;4992108;28;20102;-72
2021/07/07 13:08:32;;;;;;;15.57;3.00;;;26.00;78.50;;;;;;4986665;28;20038;-71
2021/07/07 13:10:58;;;;;;;5.95;2.35;;;26.10;79.60;;;;;;4995867;28;20258;-72
2021/07/07 13:13:34;;;;;;;12.57;3.33;;;26.00;78.50;;;;;;4995641;28;20667;-70
2021/07/07 13:16:18;;;;;;;23.92;3.08;;;25.90;77.30;;;;;;4994345;28;20030;-70
2021/07/07 13:19:03;;;;;;;5.40;2.60;;;25.80;76.90;;;;;;4986079;28;20023;-70
2021/07/07 13:21:32;;;;;;;34.58;4.88;;;25.80;77.70;;;;;;4988325;28;20422;-70
2021/07/07 13:23:58;;;;;;;9.63;2.17;;;25.80;77.30;;;;;;4994501;28;20037;-72
2021/07/07 13:26:35;;;;;;;271.38;25.77;;;25.70;76.60;;;;;;4995343;28;20112;-72
2021/07/07 13:29:35;;;;;;;16.83;2.40;;;25.70;76.10;;;;;;5006257;28;20038;-72
2021/07/07 13:32:11;;;;;;;;;;;25.60;74.80;;;;;;4934825;28;20030;-72